Mattson, Mississippi
Current Conditions -  °F | °C
As of 12:35 AM on Saturday 20 Dec 2014 (Local Time) from KCKM Reporting Station
Scattered Clouds Scattered Clouds  
Wind Chill: 39°   Ceiling: Unl
Heat Index: 39°   Visibility: 10mi
Dew Point: 37°   Wind: 3mph
Humidity: 93%   Direction: 30°NNE
Pressure: 30.23"   Gusts: NA
Location:  34.1°N, 90.51°W
Report Text: KCKM 200635Z AUTO 03003KT 10SM SCT070 04/03 A3023 RMK AO1
Loading
Personal Weather Stations






























Interactive Weather Map New forecast layout! Learn more

10-Day Weather Forecast

Advertisements
Track Severe Weather on mobile